createdAt,value
2024-02-29T00:00:01.265Z,4.95
2024-02-29T00:02:28.880Z,4.90
2024-02-29T00:05:02.441Z,4.85
2024-02-29T00:07:30.163Z,4.82
2024-02-29T00:09:57.704Z,4.81
2024-02-29T00:12:25.516Z,4.80
2024-02-29T00:14:53.187Z,4.80
2024-02-29T00:17:21.417Z,4.81
2024-02-29T00:19:48.884Z,4.86
2024-02-29T00:22:16.577Z,4.88
2024-02-29T00:24:44.315Z,4.89
2024-02-29T00:27:12.417Z,5.03
2024-02-29T00:29:39.922Z,5.18
2024-02-29T00:32:09.413Z,5.08
2024-02-29T00:34:37.024Z,5.18
2024-02-29T00:37:04.869Z,5.08
2024-02-29T00:39:32.517Z,5.12
2024-02-29T00:42:00.059Z,5.04
2024-02-29T00:44:27.683Z,5.04
2024-02-29T00:46:55.205Z,5.03
2024-02-29T00:49:22.807Z,5.01
2024-02-29T00:51:50.468Z,5.00
2024-02-29T00:54:17.940Z,4.97
2024-02-29T00:56:45.527Z,4.90
2024-02-29T00:59:13.037Z,4.91
2024-02-29T01:01:40.719Z,4.87
2024-02-29T01:04:08.366Z,4.87
2024-02-29T01:06:35.976Z,4.89
2024-02-29T01:09:05.590Z,4.89
2024-02-29T01:11:34.074Z,4.97
2024-02-29T01:14:03.927Z,5.01
2024-02-29T01:16:31.533Z,5.00
2024-02-29T01:18:59.384Z,5.02
2024-02-29T01:21:27.025Z,5.10
2024-02-29T01:23:54.486Z,5.17
2024-02-29T01:26:22.715Z,5.13
2024-02-29T01:28:50.249Z,5.36
2024-02-29T01:31:18.150Z,5.36
2024-02-29T01:33:45.704Z,5.31
2024-02-29T01:36:13.450Z,5.13
2024-02-29T01:38:40.979Z,4.94
2024-02-29T01:41:08.677Z,4.89
2024-02-29T01:43:36.467Z,4.91
2024-02-29T01:46:15.508Z,4.86
2024-02-29T01:48:43.573Z,4.82
2024-02-29T01:51:11.905Z,4.79
2024-02-29T01:53:40.174Z,4.71
2024-02-29T01:56:08.351Z,4.68
2024-02-29T01:58:36.957Z,4.68
2024-02-29T02:01:05.110Z,4.70
2024-02-29T02:03:33.144Z,4.70
2024-02-29T02:06:00.884Z,4.67
2024-02-29T02:08:31.412Z,4.71
2024-02-29T02:10:59.156Z,4.73
2024-02-29T02:13:27.061Z,4.77
2024-02-29T02:15:54.687Z,4.78
2024-02-29T02:18:23.561Z,4.77
2024-02-29T02:20:51.290Z,4.92
2024-02-29T02:23:18.737Z,4.91
2024-02-29T02:25:46.217Z,5.03
2024-02-29T02:28:14.309Z,4.88
2024-02-29T02:30:42.114Z,4.79
2024-02-29T02:33:11.432Z,4.67
2024-02-29T02:35:39.107Z,4.60
2024-02-29T02:38:07.006Z,4.62
2024-02-29T02:40:36.452Z,4.67
2024-02-29T02:43:04.816Z,4.67
2024-02-29T02:45:32.626Z,4.62
2024-02-29T02:48:00.478Z,4.55
2024-02-29T02:50:28.022Z,4.57
2024-02-29T02:52:55.672Z,4.61
2024-02-29T02:55:23.210Z,4.69
2024-02-29T02:57:50.883Z,4.63
2024-02-29T03:00:18.739Z,4.60
2024-02-29T03:02:46.377Z,4.59
2024-02-29T03:05:14.008Z,4.58
2024-02-29T03:07:41.711Z,4.54
2024-02-29T03:10:12.620Z,4.47
2024-02-29T03:12:40.301Z,4.44
2024-02-29T03:15:08.698Z,4.43
2024-02-29T03:17:36.337Z,4.40
2024-02-29T03:20:07.172Z,4.36
2024-02-29T03:22:35.193Z,4.36
2024-02-29T03:25:02.684Z,4.52
2024-02-29T03:27:30.334Z,4.58
2024-02-29T03:30:00.537Z,4.52
2024-02-29T03:32:28.464Z,4.53
2024-02-29T03:34:55.999Z,4.55
2024-02-29T03:37:23.829Z,4.49
2024-02-29T03:39:51.372Z,4.43
2024-02-29T03:42:19.053Z,4.46
2024-02-29T03:44:47.399Z,4.48
2024-02-29T03:47:15.128Z,4.60
2024-02-29T03:49:42.627Z,4.59
2024-02-29T03:52:10.355Z,4.55
2024-02-29T03:54:38.084Z,4.51
2024-02-29T03:57:05.720Z,4.53
2024-02-29T03:59:33.513Z,4.57
2024-02-29T04:02:01.541Z,4.43
2024-02-29T04:04:31.119Z,4.31
2024-02-29T04:06:58.722Z,4.22
2024-02-29T04:09:26.509Z,4.17
2024-02-29T04:11:54.485Z,4.15
2024-02-29T04:14:21.987Z,4.14
2024-02-29T04:16:49.778Z,4.13
2024-02-29T04:19:17.943Z,4.13
2024-02-29T04:21:47.456Z,4.13
2024-02-29T04:24:15.064Z,4.14
2024-02-29T04:26:42.546Z,4.12
2024-02-29T04:29:10.067Z,4.13
2024-02-29T04:31:38.155Z,4.13
2024-02-29T04:34:06.040Z,4.13
2024-02-29T04:36:33.753Z,4.14
2024-02-29T04:39:01.275Z,4.14
2024-02-29T04:41:28.798Z,4.16
2024-02-29T04:43:56.953Z,4.14
2024-02-29T04:46:24.494Z,4.15
2024-02-29T04:48:52.094Z,4.17
2024-02-29T04:51:19.621Z,4.17
2024-02-29T04:53:47.164Z,4.17
2024-02-29T04:56:14.901Z,4.17
2024-02-29T04:58:42.466Z,4.19
2024-02-29T05:01:10.248Z,4.23
2024-02-29T05:03:37.796Z,4.22
2024-02-29T05:06:05.849Z,4.19
2024-02-29T05:08:33.393Z,4.18
2024-02-29T05:11:00.971Z,4.16
2024-02-29T05:13:28.551Z,4.17
2024-02-29T05:15:56.177Z,4.16
2024-02-29T05:18:28.022Z,4.15
2024-02-29T05:20:55.774Z,4.15
2024-02-29T05:23:23.423Z,4.17
2024-02-29T05:25:51.201Z,4.14
2024-02-29T05:28:18.788Z,4.17
2024-02-29T05:30:46.405Z,4.16
2024-02-29T05:33:13.930Z,4.15
2024-02-29T05:35:41.518Z,4.15
2024-02-29T05:38:09.113Z,4.14
2024-02-29T05:40:36.736Z,4.13
2024-02-29T05:43:05.029Z,4.12
2024-02-29T05:45:32.847Z,4.11
2024-02-29T05:48:00.445Z,4.12
2024-02-29T05:50:29.882Z,4.11
2024-02-29T05:52:59.929Z,4.15
2024-02-29T05:55:27.583Z,4.18
2024-02-29T05:57:55.325Z,4.17
2024-02-29T06:00:24.495Z,4.19
2024-02-29T06:02:53.199Z,4.20
2024-02-29T06:05:21.378Z,4.25
2024-02-29T06:07:48.967Z,4.30
2024-02-29T06:10:16.645Z,4.39
2024-02-29T06:12:44.358Z,4.44
2024-02-29T06:15:12.383Z,4.50
2024-02-29T06:17:40.277Z,4.55
2024-02-29T06:20:13.372Z,4.60
2024-02-29T06:22:41.386Z,4.71
2024-02-29T06:25:12.008Z,4.76
2024-02-29T06:27:40.696Z,4.75
2024-02-29T06:30:09.768Z,4.76
2024-02-29T06:32:37.588Z,4.78
2024-02-29T06:35:05.859Z,4.84
2024-02-29T06:37:33.346Z,4.88
2024-02-29T06:40:01.286Z,4.96
2024-02-29T06:42:28.971Z,5.01
2024-02-29T06:44:56.792Z,5.16
2024-02-29T06:47:24.326Z,5.12
2024-02-29T06:49:51.997Z,5.17
2024-02-29T06:52:19.670Z,5.21
2024-02-29T06:54:47.649Z,5.28
2024-02-29T06:57:16.158Z,5.35
2024-02-29T06:59:43.729Z,5.37
2024-02-29T07:02:11.633Z,5.26
2024-02-29T07:04:39.344Z,5.33
2024-02-29T07:07:09.327Z,5.40
2024-02-29T07:09:37.070Z,5.50
2024-02-29T07:12:04.952Z,5.56
2024-02-29T07:14:32.800Z,5.65
2024-02-29T07:17:00.477Z,5.70
2024-02-29T07:19:28.076Z,5.76
2024-02-29T07:21:55.808Z,5.82
2024-02-29T07:24:23.426Z,5.91
2024-02-29T07:26:51.211Z,5.96
2024-02-29T07:29:18.959Z,5.95
2024-02-29T07:31:46.691Z,5.84
2024-02-29T07:34:17.370Z,5.84
2024-02-29T07:36:45.276Z,5.71
2024-02-29T07:39:15.982Z,5.69
2024-02-29T07:41:43.531Z,5.66
2024-02-29T07:44:11.053Z,5.82
2024-02-29T07:46:38.662Z,5.78
2024-02-29T07:49:06.177Z,5.85
2024-02-29T07:51:33.796Z,5.87
2024-02-29T07:54:01.467Z,5.91
2024-02-29T07:56:30.388Z,6.02
2024-02-29T07:58:58.174Z,6.22
2024-02-29T08:01:25.941Z,6.19
2024-02-29T08:03:53.677Z,6.36
2024-02-29T08:06:21.914Z,6.47
2024-02-29T08:08:49.451Z,6.52
2024-02-29T08:11:17.133Z,6.73
2024-02-29T08:13:45.578Z,6.94
2024-02-29T08:16:12.998Z,7.14
2024-02-29T08:18:40.675Z,7.18
2024-02-29T08:21:08.367Z,7.24
2024-02-29T08:23:36.691Z,7.25
2024-02-29T08:26:11.190Z,6.94
2024-02-29T08:28:39.211Z,7.09
2024-02-29T08:31:09.789Z,7.14
2024-02-29T08:33:37.544Z,7.09
2024-02-29T08:36:05.671Z,7.17
2024-02-29T08:38:35.341Z,7.28
2024-02-29T08:41:03.429Z,7.38
2024-02-29T08:43:31.519Z,7.25
2024-02-29T08:45:59.126Z,7.31
2024-02-29T08:48:27.050Z,6.95
2024-02-29T08:50:54.574Z,6.93
2024-02-29T08:53:23.669Z,7.01
2024-02-29T08:55:51.451Z,7.06
2024-02-29T08:58:19.236Z,6.64
2024-02-29T09:00:46.996Z,6.47
2024-02-29T09:03:14.843Z,6.65
2024-02-29T09:05:42.548Z,6.84
2024-02-29T09:08:10.151Z,6.99
2024-02-29T09:10:37.786Z,6.65
2024-02-29T09:13:19.919Z,6.50
2024-02-29T09:15:53.716Z,6.65
2024-02-29T09:18:21.540Z,6.92
2024-02-29T09:20:49.526Z,7.16
2024-02-29T09:23:17.260Z,7.13
2024-02-29T09:25:44.881Z,7.04
2024-02-29T09:28:12.753Z,7.22
2024-02-29T09:30:40.339Z,7.40
2024-02-29T09:33:07.941Z,7.38
2024-02-29T09:35:35.610Z,7.74
2024-02-29T09:38:03.128Z,7.94
2024-02-29T09:40:38.542Z,7.96
2024-02-29T09:43:13.932Z,7.99
2024-02-29T09:45:43.797Z,8.01
2024-02-29T09:48:12.682Z,8.06
2024-02-29T09:50:40.164Z,8.05
2024-02-29T09:53:10.874Z,7.96
2024-02-29T09:55:38.832Z,8.12
2024-02-29T09:58:08.380Z,8.02
2024-02-29T10:00:36.339Z,7.99
2024-02-29T10:03:05.502Z,8.12
2024-02-29T10:05:33.090Z,8.10
2024-02-29T10:08:03.303Z,7.79
2024-02-29T10:10:36.646Z,7.64
2024-02-29T10:13:06.086Z,7.91
2024-02-29T10:15:34.660Z,7.46
2024-02-29T10:18:05.219Z,7.28
2024-02-29T10:20:33.611Z,7.40
2024-02-29T10:23:01.424Z,7.68
2024-02-29T10:25:29.207Z,7.88
2024-02-29T10:28:06.401Z,7.96
2024-02-29T10:30:34.237Z,8.22
2024-02-29T10:33:01.750Z,8.57
2024-02-29T10:35:29.286Z,8.76
2024-02-29T10:37:57.224Z,8.46
2024-02-29T10:40:26.034Z,8.10
2024-02-29T10:42:57.457Z,7.42
2024-02-29T10:45:27.633Z,7.97
2024-02-29T10:48:04.369Z,8.10
2024-02-29T10:50:37.209Z,8.34
2024-02-29T10:53:34.677Z,8.52
2024-02-29T10:56:09.399Z,8.11
2024-02-29T10:58:44.164Z,8.04
2024-02-29T11:01:13.838Z,7.49
2024-02-29T11:03:42.457Z,7.40
2024-02-29T11:06:10.241Z,8.01
2024-02-29T11:08:38.151Z,8.04
2024-02-29T11:11:13.179Z,8.09
2024-02-29T11:13:41.068Z,8.02
2024-02-29T11:16:14.193Z,7.86
2024-02-29T11:18:42.929Z,8.19
2024-02-29T11:21:10.631Z,8.03
2024-02-29T11:23:40.663Z,7.92
2024-02-29T11:26:10.343Z,8.21
2024-02-29T11:28:39.802Z,7.87
2024-02-29T11:31:17.699Z,7.73
2024-02-29T11:33:49.629Z,7.75
2024-02-29T11:36:17.659Z,7.88
2024-02-29T11:38:45.955Z,7.85
2024-02-29T11:41:20.749Z,8.10
2024-02-29T11:43:50.440Z,7.89
2024-02-29T11:46:18.832Z,8.15
2024-02-29T11:48:46.606Z,8.25
2024-02-29T11:51:14.295Z,8.06
2024-02-29T11:53:42.955Z,7.94
2024-02-29T11:56:15.526Z,7.77
2024-02-29T11:58:45.274Z,7.98
2024-02-29T12:01:14.236Z,8.12
2024-02-29T12:03:41.917Z,8.20
2024-02-29T12:06:09.592Z,8.34
2024-02-29T12:08:40.240Z,8.93
2024-02-29T12:11:08.802Z,9.20
2024-02-29T12:13:36.599Z,9.32
2024-02-29T12:16:05.986Z,9.14
2024-02-29T12:18:36.079Z,9.17
2024-02-29T12:21:05.141Z,9.10
2024-02-29T12:23:33.083Z,8.72
2024-02-29T12:26:11.540Z,8.79
2024-02-29T12:28:40.095Z,9.00
2024-02-29T12:31:08.212Z,8.63
2024-02-29T12:33:45.595Z,8.96
2024-02-29T12:36:17.410Z,8.79
2024-02-29T12:38:45.631Z,8.95
2024-02-29T12:41:14.518Z,9.35
2024-02-29T12:43:51.394Z,9.36
2024-02-29T12:46:20.407Z,9.48
2024-02-29T12:48:48.021Z,9.25
2024-02-29T12:51:15.986Z,9.15
2024-02-29T12:53:43.576Z,8.87
2024-02-29T12:56:11.355Z,8.72
2024-02-29T12:58:39.641Z,9.24
2024-02-29T13:01:08.454Z,9.54
2024-02-29T13:03:36.513Z,9.46
2024-02-29T13:06:04.692Z,9.28
2024-02-29T13:08:34.071Z,9.38
2024-02-29T13:11:01.641Z,9.29
2024-02-29T13:13:29.282Z,9.04
2024-02-29T13:15:57.229Z,9.03
2024-02-29T13:18:24.876Z,8.88
2024-02-29T13:20:55.379Z,8.91
2024-02-29T13:23:23.205Z,8.74
2024-02-29T13:25:51.717Z,9.24
2024-02-29T13:28:20.420Z,9.21
2024-02-29T13:30:49.919Z,9.42
2024-02-29T13:33:17.898Z,9.05
2024-02-29T13:35:45.709Z,9.14
2024-02-29T13:38:13.353Z,9.51
2024-02-29T13:40:41.185Z,9.67
2024-02-29T13:43:08.942Z,9.46
2024-02-29T13:45:39.592Z,9.43
2024-02-29T13:48:07.843Z,9.79
2024-02-29T13:50:35.442Z,10.03
2024-02-29T13:53:03.037Z,10.34
2024-02-29T13:55:30.778Z,9.86
2024-02-29T13:57:58.924Z,10.00
2024-02-29T14:00:30.079Z,9.98
2024-02-29T14:02:58.338Z,9.84
2024-02-29T14:05:25.990Z,9.65
2024-02-29T14:07:53.695Z,9.53
2024-02-29T14:10:21.207Z,9.45
2024-02-29T14:12:49.378Z,9.68
2024-02-29T14:15:20.513Z,9.95
2024-02-29T14:17:49.097Z,10.19
2024-02-29T14:20:16.953Z,9.92
2024-02-29T14:22:44.678Z,10.14
2024-02-29T14:25:12.962Z,10.58
2024-02-29T14:27:41.241Z,10.76
2024-02-29T14:30:10.643Z,11.04
2024-02-29T14:32:39.321Z,10.67
2024-02-29T14:35:07.908Z,10.64
2024-02-29T14:37:36.017Z,10.55
2024-02-29T14:40:05.950Z,10.27
2024-02-29T14:42:34.585Z,10.08
2024-02-29T14:45:02.242Z,10.13
2024-02-29T14:47:30.767Z,10.09
2024-02-29T14:49:58.285Z,10.07
2024-02-29T14:52:28.387Z,9.91
2024-02-29T14:54:56.816Z,9.96
2024-02-29T14:57:25.494Z,9.85
2024-02-29T14:59:53.374Z,9.93
2024-02-29T15:02:21.314Z,9.98
2024-02-29T15:04:49.096Z,9.87
2024-02-29T15:07:17.185Z,9.83
2024-02-29T15:09:44.986Z,9.91
2024-02-29T15:12:12.632Z,9.82
2024-02-29T15:14:40.278Z,9.81
2024-02-29T15:17:08.429Z,9.81
2024-02-29T15:19:36.136Z,9.80
2024-02-29T15:22:03.932Z,9.78
2024-02-29T15:24:31.420Z,9.77
2024-02-29T15:27:03.165Z,9.77
2024-02-29T15:29:30.787Z,9.73
2024-02-29T15:31:58.350Z,9.73
2024-02-29T15:34:26.093Z,9.76
2024-02-29T15:36:55.145Z,9.70
2024-02-29T15:39:22.980Z,9.67
2024-02-29T15:41:50.807Z,9.74
2024-02-29T15:44:18.493Z,9.77
2024-02-29T15:46:47.508Z,9.80
2024-02-29T15:49:15.435Z,9.88
2024-02-29T15:51:43.221Z,9.82
2024-02-29T15:54:10.766Z,9.64
2024-02-29T15:56:38.415Z,9.30
2024-02-29T15:59:06.166Z,9.13
2024-02-29T16:01:33.783Z,9.01
2024-02-29T16:04:01.395Z,8.83
2024-02-29T16:06:28.989Z,8.72
2024-02-29T16:08:56.542Z,8.64
2024-02-29T16:11:24.256Z,8.58
2024-02-29T16:13:54.990Z,8.50
2024-02-29T16:16:23.405Z,8.46
2024-02-29T16:18:51.064Z,8.35
2024-02-29T16:21:18.643Z,8.27
2024-02-29T16:23:46.184Z,8.19
2024-02-29T16:26:13.836Z,8.08
2024-02-29T16:28:41.408Z,7.89
2024-02-29T16:31:09.545Z,7.72
2024-02-29T16:33:37.304Z,7.71
2024-02-29T16:36:08.073Z,7.57
2024-02-29T16:38:38.552Z,7.42
2024-02-29T16:41:06.925Z,7.39
2024-02-29T16:43:34.770Z,7.28
2024-02-29T16:46:02.581Z,7.15
2024-02-29T16:48:30.489Z,7.05
2024-02-29T16:51:00.688Z,7.07
2024-02-29T16:53:28.735Z,7.08
2024-02-29T16:55:57.607Z,7.01
2024-02-29T16:58:26.758Z,6.92
2024-02-29T17:00:57.120Z,6.84
2024-02-29T17:03:25.019Z,6.79
2024-02-29T17:05:53.270Z,6.82
2024-02-29T17:08:22.408Z,6.79
2024-02-29T17:10:50.510Z,6.85
2024-02-29T17:13:18.478Z,6.81
2024-02-29T17:15:46.911Z,6.61
2024-02-29T17:18:17.581Z,6.32
2024-02-29T17:20:54.276Z,6.16
2024-02-29T17:23:25.212Z,6.07
2024-02-29T17:25:54.272Z,6.04
2024-02-29T17:28:22.305Z,5.82
2024-02-29T17:30:50.490Z,5.87
2024-02-29T17:33:18.372Z,5.77
2024-02-29T17:35:52.714Z,5.72
2024-02-29T17:38:20.399Z,5.52
2024-02-29T17:40:48.574Z,5.52
2024-02-29T17:43:18.552Z,5.47
2024-02-29T17:45:47.712Z,5.36
2024-02-29T17:48:16.059Z,5.34
2024-02-29T17:50:45.459Z,5.55
2024-02-29T17:53:14.282Z,5.60
2024-02-29T17:55:51.098Z,5.78
2024-02-29T17:58:22.236Z,5.98
2024-02-29T18:00:52.558Z,5.98
2024-02-29T18:03:21.623Z,5.89
2024-02-29T18:05:51.387Z,5.83
2024-02-29T18:08:26.913Z,5.61
2024-02-29T18:10:57.463Z,5.57
2024-02-29T18:13:27.139Z,5.70
2024-02-29T18:15:56.673Z,5.57
2024-02-29T18:18:25.542Z,5.46
2024-02-29T18:20:54.094Z,5.26
2024-02-29T18:23:24.675Z,4.98
2024-02-29T18:25:57.210Z,4.76
2024-02-29T18:28:31.263Z,4.63
2024-02-29T18:31:01.629Z,4.55
2024-02-29T18:33:31.452Z,4.33
2024-02-29T18:36:01.795Z,4.23
2024-02-29T18:38:30.560Z,4.11
2024-02-29T18:41:02.756Z,4.19
2024-02-29T18:43:33.178Z,4.24
2024-02-29T18:46:06.345Z,4.58
2024-02-29T18:48:37.609Z,4.71
2024-02-29T18:51:09.143Z,4.84
2024-02-29T18:53:37.921Z,5.01
2024-02-29T18:56:17.648Z,4.78
2024-02-29T18:58:59.965Z,4.84
2024-02-29T19:01:33.522Z,4.77
2024-02-29T19:04:16.710Z,4.45
2024-02-29T19:06:57.996Z,4.41
2024-02-29T19:09:32.663Z,4.22
2024-02-29T19:12:05.470Z,4.48
2024-02-29T19:14:37.309Z,4.65
2024-02-29T19:17:09.103Z,4.44
2024-02-29T19:19:39.021Z,4.73
2024-02-29T19:22:08.069Z,4.85
2024-02-29T19:24:52.212Z,4.47
2024-02-29T19:30:23.041Z,4.47
2024-02-29T19:32:56.073Z,4.57
2024-02-29T19:35:26.761Z,4.63
2024-02-29T19:38:02.276Z,4.42
2024-02-29T19:40:40.272Z,4.16
2024-02-29T19:43:10.464Z,4.61
2024-02-29T19:45:40.844Z,4.77
2024-02-29T19:48:10.716Z,4.41
2024-02-29T19:50:40.935Z,4.61
2024-02-29T19:53:31.483Z,4.50
2024-02-29T19:58:58.929Z,4.00
2024-02-29T20:01:30.976Z,3.89
2024-02-29T20:04:01.939Z,4.42
2024-02-29T20:06:33.399Z,4.55
2024-02-29T20:09:10.423Z,4.47
2024-02-29T20:11:39.684Z,3.97
2024-02-29T20:14:12.216Z,3.93
2024-02-29T20:16:43.562Z,3.67
2024-02-29T20:19:15.174Z,3.61
2024-02-29T20:21:46.422Z,3.43
2024-02-29T20:24:16.273Z,3.48
2024-02-29T20:26:46.915Z,3.33
2024-02-29T20:29:17.138Z,3.22
2024-02-29T20:31:54.005Z,3.19
2024-02-29T20:34:28.014Z,3.08
2024-02-29T20:36:56.815Z,3.00
2024-02-29T20:39:27.395Z,3.00
2024-02-29T20:41:59.164Z,2.88
2024-02-29T20:44:29.475Z,2.77
2024-02-29T20:47:01.153Z,2.78
2024-02-29T20:49:31.889Z,2.76
2024-02-29T20:52:06.138Z,2.69
2024-02-29T20:55:04.564Z,2.84
2024-02-29T20:57:51.570Z,3.00
2024-02-29T21:00:40.869Z,2.95
2024-02-29T21:03:13.101Z,2.87
2024-02-29T21:05:46.415Z,2.97
2024-02-29T21:08:17.767Z,2.86
2024-02-29T21:10:49.909Z,2.88
2024-02-29T21:13:22.639Z,2.78
2024-02-29T21:15:54.879Z,2.67
2024-02-29T21:18:24.724Z,2.54
2024-02-29T21:21:14.615Z,2.52
2024-02-29T21:23:46.912Z,2.52
2024-02-29T21:26:21.951Z,2.70
2024-02-29T21:28:51.572Z,2.63
2024-02-29T21:31:21.167Z,2.68
2024-02-29T21:33:54.860Z,2.55
2024-02-29T21:36:34.285Z,2.41
2024-02-29T21:39:04.682Z,2.44
2024-02-29T21:41:36.986Z,2.60
2024-02-29T21:44:12.521Z,2.53
2024-02-29T21:46:42.991Z,2.56
2024-02-29T21:49:11.881Z,2.61
2024-02-29T21:51:41.708Z,2.66
2024-02-29T21:54:17.825Z,2.73
2024-02-29T21:56:52.599Z,2.60
2024-02-29T21:59:32.604Z,2.96
2024-02-29T22:02:03.447Z,3.16
2024-02-29T22:04:36.595Z,3.02
2024-02-29T22:07:09.843Z,2.74
2024-02-29T22:12:21.160Z,3.82
2024-02-29T22:14:49.036Z,3.57
2024-02-29T22:17:18.597Z,3.33
2024-02-29T22:19:47.245Z,3.13
2024-02-29T22:22:15.455Z,3.42
2024-02-29T22:24:44.012Z,3.14
2024-02-29T22:27:13.871Z,3.03
2024-02-29T22:29:43.400Z,3.00
2024-02-29T22:32:12.179Z,2.91
2024-02-29T22:34:41.634Z,2.80
2024-02-29T22:37:10.820Z,2.64
2024-02-29T22:39:39.798Z,2.54
2024-02-29T22:42:09.000Z,2.52
2024-02-29T22:44:37.893Z,2.64
2024-02-29T22:47:07.221Z,2.53
2024-02-29T22:49:35.702Z,2.45
2024-02-29T22:52:04.929Z,2.55
2024-02-29T22:54:34.271Z,2.95
2024-02-29T22:57:03.795Z,2.85
2024-02-29T22:59:32.183Z,2.77
2024-02-29T23:02:02.142Z,2.62
2024-02-29T23:04:31.110Z,2.73
2024-02-29T23:07:00.093Z,2.90
2024-02-29T23:09:29.130Z,3.03
2024-02-29T23:11:58.441Z,3.08
2024-02-29T23:14:32.027Z,3.01
2024-02-29T23:17:00.732Z,2.83
2024-02-29T23:19:29.373Z,3.05
2024-02-29T23:21:58.133Z,3.00
2024-02-29T23:24:25.948Z,2.77
2024-02-29T23:26:55.582Z,2.66
2024-02-29T23:29:24.552Z,2.65
2024-02-29T23:31:52.255Z,3.00
2024-02-29T23:34:21.855Z,2.87
2024-02-29T23:36:52.240Z,2.85
2024-02-29T23:39:23.393Z,3.19
2024-02-29T23:41:52.206Z,3.11
2024-02-29T23:44:20.856Z,2.92
2024-02-29T23:46:49.301Z,2.80
2024-02-29T23:49:17.757Z,2.80
2024-02-29T23:51:46.965Z,2.67
2024-02-29T23:54:15.745Z,2.55
2024-02-29T23:56:44.163Z,2.60
2024-02-29T23:59:12.661Z,2.49
